createdAt,value
2024-04-15T00:00:09.074Z,15.80
2024-04-15T00:05:20.011Z,15.83
2024-04-15T00:10:22.124Z,15.83
2024-04-15T00:15:23.989Z,15.77
2024-04-15T00:20:28.185Z,15.69
2024-04-15T00:25:30.054Z,15.67
2024-04-15T00:30:34.213Z,15.62
2024-04-15T00:35:37.082Z,15.62
2024-04-15T00:40:38.879Z,15.63
2024-04-15T00:45:40.792Z,15.63
2024-04-15T00:50:46.342Z,15.51
2024-04-15T00:55:52.855Z,15.37
2024-04-15T01:00:55.853Z,15.26
2024-04-15T01:05:57.996Z,15.29
2024-04-15T01:11:01.327Z,15.38
2024-04-15T01:16:03.764Z,15.45
2024-04-15T01:21:06.260Z,15.51
2024-04-15T01:26:08.151Z,15.50
2024-04-15T01:31:10.051Z,15.41
2024-04-15T01:36:11.875Z,15.08
2024-04-15T01:41:13.690Z,14.97
2024-04-15T01:46:15.611Z,14.93
2024-04-15T01:51:17.579Z,15.00
2024-04-15T01:56:19.396Z,15.14
2024-04-15T02:01:21.318Z,15.14
2024-04-15T02:06:23.166Z,15.16
2024-04-15T02:11:24.982Z,15.16
2024-04-15T02:16:26.808Z,15.17
2024-04-15T02:21:28.703Z,15.17
2024-04-15T02:26:30.518Z,15.14
2024-04-15T02:31:32.424Z,15.09
2024-04-15T02:36:34.266Z,15.01
2024-04-15T02:41:36.071Z,14.93
2024-04-15T02:46:37.967Z,14.81
2024-04-15T02:51:39.801Z,14.55
2024-04-15T02:56:43.093Z,14.37
2024-04-15T03:01:45.199Z,14.22
2024-04-15T03:06:47.073Z,13.90
2024-04-15T03:11:49.338Z,13.63
2024-04-15T03:16:51.161Z,13.39
2024-04-15T03:21:53.063Z,13.18
2024-04-15T03:26:55.527Z,13.03
2024-04-15T03:31:57.352Z,12.94
2024-04-15T03:36:59.223Z,12.81
2024-04-15T03:42:01.039Z,12.64
2024-04-15T03:47:02.906Z,12.56
2024-04-15T03:52:05.006Z,12.42
2024-04-15T03:57:06.881Z,12.27
2024-04-15T04:02:09.134Z,12.24
2024-04-15T04:07:11.080Z,12.20
2024-04-15T04:12:14.724Z,12.19
2024-04-15T04:17:18.221Z,12.17
2024-04-15T04:22:20.220Z,12.10
2024-04-15T04:27:22.375Z,12.03
2024-04-15T04:32:24.523Z,11.97
2024-04-15T04:37:26.589Z,11.90
2024-04-15T04:42:28.899Z,11.88
2024-04-15T04:47:32.991Z,11.88
2024-04-15T04:52:34.819Z,11.82
2024-04-15T04:57:37.162Z,11.72
2024-04-15T05:02:39.644Z,11.67
2024-04-15T05:07:41.685Z,11.69
2024-04-15T05:12:44.174Z,11.72
2024-04-15T05:17:46.622Z,11.75
2024-04-15T05:22:48.554Z,11.75
2024-04-15T05:27:50.605Z,11.73
2024-04-15T05:32:53.021Z,11.74
2024-04-15T05:37:54.974Z,11.65
2024-04-15T05:42:57.107Z,11.61
2024-04-15T05:47:59.183Z,11.59
2024-04-15T05:53:01.300Z,11.58
2024-04-15T05:58:03.741Z,11.56
2024-04-15T06:03:05.778Z,11.57
2024-04-15T06:08:11.266Z,11.67
2024-04-15T06:13:14.235Z,11.76
2024-04-15T06:18:16.569Z,11.80
2024-04-15T06:23:19.436Z,11.99
2024-04-15T06:28:21.728Z,12.07
2024-04-15T06:33:23.965Z,12.10
2024-04-15T06:38:26.323Z,12.21
2024-04-15T06:43:28.965Z,12.14
2024-04-15T06:48:31.571Z,12.05
2024-04-15T06:53:33.683Z,12.06
2024-04-15T06:58:35.482Z,12.01
2024-04-15T07:03:37.432Z,12.00
2024-04-15T07:08:40.503Z,11.88
2024-04-15T07:13:43.685Z,11.78
2024-04-15T07:18:45.651Z,11.66
2024-04-15T07:23:47.979Z,11.63
2024-04-15T07:28:49.949Z,11.69
2024-04-15T07:33:54.337Z,11.81
2024-04-15T07:38:58.041Z,11.99
2024-04-15T07:43:59.863Z,12.03
2024-04-15T07:49:01.757Z,12.00
2024-04-15T07:54:04.603Z,12.29
2024-04-15T07:59:06.450Z,12.58
2024-04-15T08:04:08.436Z,12.49
2024-04-15T08:09:10.471Z,12.53
2024-04-15T08:14:12.333Z,12.68
2024-04-15T08:19:14.151Z,12.94
2024-04-15T08:24:16.036Z,13.07
2024-04-15T08:29:17.873Z,13.16
2024-04-15T08:34:19.716Z,13.21
2024-04-15T08:39:21.790Z,13.35
2024-04-15T08:44:26.574Z,13.33
2024-04-15T08:49:28.680Z,13.39
2024-04-15T08:54:30.662Z,13.45
2024-04-15T08:59:33.768Z,13.68
2024-04-15T09:04:35.709Z,13.85
2024-04-15T09:09:37.621Z,13.80
2024-04-15T09:14:39.657Z,13.79
2024-04-15T09:19:46.189Z,13.86
2024-04-15T09:24:48.389Z,14.06
2024-04-15T09:29:50.187Z,14.48
2024-04-15T09:35:02.783Z,14.78
2024-04-15T09:40:05.667Z,15.04
2024-04-15T09:45:10.257Z,15.38
2024-04-15T09:50:12.170Z,15.72
2024-04-15T09:55:26.924Z,16.07
2024-04-15T10:00:30.056Z,16.50
2024-04-15T10:05:34.039Z,16.76
2024-04-15T10:10:38.348Z,16.98
2024-04-15T10:15:41.179Z,17.02
2024-04-15T10:20:44.916Z,17.03
2024-04-15T10:25:47.339Z,16.83
2024-04-15T10:30:49.573Z,16.63
2024-04-15T10:35:55.314Z,16.46
2024-04-15T10:40:57.171Z,16.45
2024-04-15T10:45:59.088Z,16.30
2024-04-15T10:51:00.962Z,16.10
2024-04-15T10:56:02.931Z,15.97
2024-04-15T11:01:05.015Z,15.85
2024-04-15T11:06:08.087Z,15.94
2024-04-15T11:11:10.788Z,15.94
2024-04-15T11:16:14.715Z,15.94
2024-04-15T11:21:17.917Z,16.18
2024-04-15T11:26:20.852Z,16.54
2024-04-15T11:31:23.068Z,16.58
2024-04-15T11:36:25.029Z,16.54
2024-04-15T11:41:27.832Z,16.51
2024-04-15T11:46:29.776Z,16.51
2024-04-15T11:51:31.697Z,16.49
2024-04-15T11:56:33.641Z,16.51
2024-04-15T12:01:35.771Z,16.81
2024-04-15T12:06:43.364Z,17.16
2024-04-15T12:11:45.379Z,17.23
2024-04-15T12:16:47.326Z,17.09
2024-04-15T12:21:49.222Z,16.95
2024-04-15T12:26:55.372Z,17.04
2024-04-15T12:31:57.426Z,16.92
2024-04-15T12:36:59.265Z,17.01
2024-04-15T12:42:01.087Z,17.19
2024-04-15T12:47:02.966Z,17.21
2024-04-15T12:52:05.018Z,17.45
2024-04-15T12:57:07.961Z,17.82
2024-04-15T13:02:10.209Z,17.92
2024-04-15T13:07:13.105Z,17.89
2024-04-15T13:12:15.089Z,17.94
2024-04-15T13:17:17.011Z,18.01
2024-04-15T13:22:19.087Z,17.86
2024-04-15T13:27:20.990Z,17.87
2024-04-15T13:32:22.834Z,18.02
2024-04-15T13:37:25.236Z,18.17
2024-04-15T13:42:27.334Z,18.12
2024-04-15T13:47:29.171Z,18.05
2024-04-15T13:52:31.014Z,18.07
2024-04-15T13:57:33.071Z,18.15
2024-04-15T14:02:34.947Z,18.25
2024-04-15T14:07:44.557Z,18.27
2024-04-15T14:12:47.023Z,18.29
2024-04-15T14:17:49.451Z,18.39
2024-04-15T14:22:51.792Z,18.50
2024-04-15T14:27:53.701Z,18.53
2024-04-15T14:32:55.800Z,18.61
2024-04-15T14:37:57.970Z,18.70
2024-04-15T14:42:59.952Z,18.79
2024-04-15T14:48:02.468Z,18.84
2024-04-15T14:53:04.654Z,18.92
2024-04-15T14:58:06.786Z,18.85
2024-04-15T15:03:09.310Z,18.79
2024-04-15T15:08:11.480Z,18.82
2024-04-15T15:13:13.608Z,18.84
2024-04-15T15:18:16.132Z,18.85
2024-04-15T15:23:18.198Z,18.85
2024-04-15T15:28:20.488Z,18.86
2024-04-15T15:33:22.775Z,19.00
2024-04-15T15:38:25.020Z,18.95
2024-04-15T15:43:28.031Z,18.98
2024-04-15T15:48:29.987Z,19.02
2024-04-15T15:53:31.960Z,18.94
2024-04-15T15:58:34.062Z,19.02
2024-04-15T16:03:36.279Z,19.07
2024-04-15T16:08:38.436Z,19.09
2024-04-15T16:13:41.133Z,19.10
2024-04-15T16:18:45.251Z,19.09
2024-04-15T16:23:47.743Z,18.97
2024-04-15T16:28:50.012Z,18.97
2024-04-15T16:33:52.420Z,18.75
2024-04-15T16:38:54.328Z,18.63
2024-04-15T16:43:57.004Z,18.54
2024-04-15T16:48:59.379Z,18.50
2024-04-15T16:54:03.092Z,18.54
2024-04-15T16:59:05.022Z,18.53
2024-04-15T17:04:07.376Z,18.50
2024-04-15T17:09:09.682Z,18.40
2024-04-15T17:14:13.496Z,18.25
2024-04-15T17:19:15.540Z,18.15
2024-04-15T17:24:17.377Z,18.00
2024-04-15T17:29:19.280Z,17.72
2024-04-15T17:34:21.219Z,17.42
2024-04-15T17:39:23.161Z,17.19
2024-04-15T17:44:24.989Z,17.09
2024-04-15T17:49:26.917Z,16.97
2024-04-15T17:54:28.772Z,16.91
2024-04-15T17:59:30.863Z,16.85
2024-04-15T18:04:33.302Z,16.79
2024-04-15T18:09:36.176Z,16.74
2024-04-15T18:14:38.142Z,16.69
2024-04-15T18:19:40.037Z,16.67
2024-04-15T18:24:41.961Z,16.62
2024-04-15T18:29:43.913Z,16.45
2024-04-15T18:34:45.732Z,16.34
2024-04-15T18:39:47.816Z,16.23
2024-04-15T18:44:52.014Z,16.14
2024-04-15T18:49:53.941Z,16.14
2024-04-15T18:54:55.849Z,16.08
2024-04-15T18:59:58.043Z,16.01
2024-04-15T19:05:00.210Z,15.95
2024-04-15T19:10:02.225Z,16.00
2024-04-15T19:15:12.820Z,16.00
2024-04-15T19:20:16.753Z,16.01
2024-04-15T19:25:18.716Z,16.05
2024-04-15T19:30:20.595Z,16.04
2024-04-15T19:35:22.517Z,16.07
2024-04-15T19:40:24.836Z,16.07
2024-04-15T19:45:26.724Z,16.02
2024-04-15T19:50:28.772Z,15.92
2024-04-15T19:55:30.664Z,15.85
2024-04-15T20:00:32.577Z,15.85
2024-04-15T20:05:34.528Z,15.79
2024-04-15T20:10:36.817Z,15.76
2024-04-15T20:15:40.705Z,15.73
2024-04-15T20:20:45.210Z,15.66
2024-04-15T20:25:47.441Z,15.65
2024-04-15T20:30:50.109Z,15.53
2024-04-15T20:35:52.017Z,15.50
2024-04-15T20:40:53.880Z,15.45
2024-04-15T20:45:55.928Z,15.47
2024-04-15T20:50:57.819Z,15.57
2024-04-15T20:55:59.793Z,14.93
2024-04-15T21:01:04.749Z,13.86
2024-04-15T21:06:07.010Z,13.04
2024-04-15T21:11:09.072Z,12.33
2024-04-15T21:16:11.054Z,11.71
2024-04-15T21:21:14.820Z,11.15
2024-04-15T21:26:16.763Z,10.84
2024-04-15T21:31:18.685Z,10.54
2024-04-15T21:36:20.602Z,10.25
2024-04-15T21:41:23.797Z,9.92
2024-04-15T21:46:25.773Z,9.71
2024-04-15T21:51:29.375Z,9.41
2024-04-15T21:56:31.217Z,9.24
2024-04-15T22:01:33.878Z,9.01
2024-04-15T22:06:36.074Z,8.93
2024-04-15T22:11:37.892Z,8.93
2024-04-15T22:16:39.736Z,8.85
2024-04-15T22:21:42.144Z,8.80
2024-04-15T22:26:44.021Z,8.77
2024-04-15T22:31:45.933Z,8.72
2024-04-15T22:36:48.143Z,8.73
2024-04-15T22:41:51.217Z,8.75
2024-04-15T22:46:53.066Z,8.69
2024-04-15T22:51:54.966Z,8.71
2024-04-15T22:57:00.594Z,8.71
2024-04-15T23:02:02.565Z,8.65
2024-04-15T23:07:04.528Z,8.53
2024-04-15T23:12:06.643Z,8.37
2024-04-15T23:17:08.521Z,8.21
2024-04-15T23:22:10.473Z,8.02
2024-04-15T23:27:13.869Z,7.94
2024-04-15T23:32:15.682Z,7.88
2024-04-15T23:37:17.521Z,7.78
2024-04-15T23:42:19.387Z,7.72
2024-04-15T23:47:40.036Z,7.75
2024-04-15T23:53:00.461Z,7.72
2024-04-15T23:58:21.143Z,7.66
